Terminal Aerodrome Forecast
Issued by NWS Topeka, KS

Home | Current Version | Previous Version | Text Only | Print | Product List | Glossary Off
Versions: 1 2 3 4 5 6 7 8 9 10 11 12 13 14 15

196
FTUS43 KTOP 090528
TAFTOP
TAF
KTOP 090528Z 0906/1006 28004KT P6SM SKC
     FM091500 33010G19KT P6SM SCT250
     FM092200 32007KT P6SM SKC=

USA.gov is the U.S. government's official web portal to all federal, state and local government web resources and services.